sensor_id;sensor_type;location;lat;lon;timestamp;pressure;altitude;pressure_sealevel;temperature;humidity
71774;BME280;59607;52.130;5.430;2023-12-29T00:02:08;100681.78;;;10.46;100.00
71774;BME280;59607;52.130;5.430;2023-12-29T00:04:38;100696.38;;;10.48;100.00
71774;BME280;59607;52.130;5.430;2023-12-29T00:07:04;100689.34;;;10.49;100.00
71774;BME280;59607;52.130;5.430;2023-12-29T00:09:34;100682.09;;;10.51;100.00
71774;BME280;59607;52.130;5.430;2023-12-29T00:12:07;100701.63;;;10.48;100.00
71774;BME280;59607;52.130;5.430;2023-12-29T00:14:49;100684.88;;;10.49;100.00
71774;BME280;59607;52.130;5.430;2023-12-29T00:17:18;100675.56;;;10.47;100.00
71774;BME280;59607;52.130;5.430;2023-12-29T00:19:47;100691.59;;;10.35;100.00
71774;BME280;59607;52.130;5.430;2023-12-29T00:22:17;100702.25;;;10.25;100.00
71774;BME280;59607;52.130;5.430;2023-12-29T00:24:47;100688.34;;;10.08;100.00
71774;BME280;59607;52.130;5.430;2023-12-29T00:27:13;100697.63;;;9.94;100.00
71774;BME280;59607;52.130;5.430;2023-12-29T00:29:46;100686.19;;;9.87;100.00
71774;BME280;59607;52.130;5.430;2023-12-29T00:32:16;100683.06;;;9.83;100.00
71774;BME280;59607;52.130;5.430;2023-12-29T00:34:42;100686.00;;;9.80;100.00
71774;BME280;59607;52.130;5.430;2023-12-29T00:37:09;100681.75;;;9.79;100.00
71774;BME280;59607;52.130;5.430;2023-12-29T00:39:42;100684.72;;;9.84;100.00
71774;BME280;59607;52.130;5.430;2023-12-29T00:42:23;100659.16;;;9.86;100.00
71774;BME280;59607;52.130;5.430;2023-12-29T00:45:06;100668.19;;;9.92;100.00
71774;BME280;59607;52.130;5.430;2023-12-29T00:47:47;100660.66;;;9.97;100.00
71774;BME280;59607;52.130;5.430;2023-12-29T00:50:20;100659.16;;;10.03;100.00
71774;BME280;59607;52.130;5.430;2023-12-29T00:52:46;100645.41;;;10.09;100.00
71774;BME280;59607;52.130;5.430;2023-12-29T00:55:13;100632.81;;;10.21;100.00
71774;BME280;59607;52.130;5.430;2023-12-29T00:57:39;100647.88;;;10.28;100.00
71774;BME280;59607;52.130;5.430;2023-12-29T01:00:11;100648.84;;;10.27;100.00
71774;BME280;59607;52.130;5.430;2023-12-29T01:02:42;100659.19;;;10.28;100.00
71774;BME280;59607;52.130;5.430;2023-12-29T01:05:09;100628.84;;;10.34;100.00
71774;BME280;59607;52.130;5.430;2023-12-29T01:07:35;100659.16;;;10.36;100.00
71774;BME280;59607;52.130;5.430;2023-12-29T01:10:07;100639.00;;;10.37;100.00
71774;BME280;59607;52.130;5.430;2023-12-29T01:12:36;100651.44;;;10.43;100.00
71774;BME280;59607;52.130;5.430;2023-12-29T01:15:05;100652.28;;;10.44;100.00
71774;BME280;59607;52.130;5.430;2023-12-29T01:17:39;100647.03;;;10.44;100.00
71774;BME280;59607;52.130;5.430;2023-12-29T01:20:16;100643.56;;;10.43;100.00
71774;BME280;59607;52.130;5.430;2023-12-29T01:22:43;100656.38;;;10.46;100.00
71774;BME280;59607;52.130;5.430;2023-12-29T01:25:09;100650.31;;;10.46;100.00
71774;BME280;59607;52.130;5.430;2023-12-29T01:27:36;100647.84;;;10.44;100.00
71774;BME280;59607;52.130;5.430;2023-12-29T01:32:54;100633.09;;;10.43;100.00
71774;BME280;59607;52.130;5.430;2023-12-29T01:35:27;100648.03;;;10.43;100.00
71774;BME280;59607;52.130;5.430;2023-12-29T01:37:53;100636.88;;;10.41;100.00
71774;BME280;59607;52.130;5.430;2023-12-29T01:40:24;100632.47;;;10.41;100.00
71774;BME280;59607;52.130;5.430;2023-12-29T01:42:51;100631.97;;;10.37;100.00
71774;BME280;59607;52.130;5.430;2023-12-29T01:45:24;100637.38;;;10.36;100.00
71774;BME280;59607;52.130;5.430;2023-12-29T01:47:54;100633.91;;;10.35;100.00
71774;BME280;59607;52.130;5.430;2023-12-29T01:50:21;100632.13;;;10.36;100.00
71774;BME280;59607;52.130;5.430;2023-12-29T01:52:50;100626.06;;;10.35;100.00
71774;BME280;59607;52.130;5.430;2023-12-29T01:55:20;100620.81;;;10.35;100.00
71774;BME280;59607;52.130;5.430;2023-12-29T01:57:51;100637.53;;;10.34;100.00
71774;BME280;59607;52.130;5.430;2023-12-29T02:00:21;100642.94;;;10.33;100.00
71774;BME280;59607;52.130;5.430;2023-12-29T02:02:48;100630.81;;;10.32;100.00
71774;BME280;59607;52.130;5.430;2023-12-29T02:05:18;100655.41;;;10.31;100.00
71774;BME280;59607;52.130;5.430;2023-12-29T02:07:51;100648.53;;;10.30;100.00
71774;BME280;59607;52.130;5.430;2023-12-29T02:10:21;100650.31;;;10.29;100.00
71774;BME280;59607;52.130;5.430;2023-12-29T02:12:48;100666.22;;;10.28;100.00
71774;BME280;59607;52.130;5.430;2023-12-29T02:15:15;100650.66;;;10.26;100.00
71774;BME280;59607;52.130;5.430;2023-12-29T02:18:33;100652.63;;;10.24;100.00
71774;BME280;59607;52.130;5.430;2023-12-29T02:20:43;100657.84;;;10.24;100.00
71774;BME280;59607;52.130;5.430;2023-12-29T02:23:18;100658.03;;;10.22;100.00
71774;BME280;59607;52.130;5.430;2023-12-29T02:25:45;100639.50;;;10.24;100.00
71774;BME280;59607;52.130;5.430;2023-12-29T02:28:25;100635.09;;;10.24;100.00
71774;BME280;59607;52.130;5.430;2023-12-29T02:31:07;100666.53;;;10.24;100.00
71774;BME280;59607;52.130;5.430;2023-12-29T02:33:40;100655.56;;;10.21;100.00
71774;BME280;59607;52.130;5.430;2023-12-29T02:36:10;100648.03;;;10.18;100.00
71774;BME280;59607;52.130;5.430;2023-12-29T02:38:57;100650.97;;;10.15;100.00
71774;BME280;59607;52.130;5.430;2023-12-29T02:41:28;100647.88;;;10.11;100.00
71774;BME280;59607;52.130;5.430;2023-12-29T02:43:54;100658.69;;;10.08;100.00
71774;BME280;59607;52.130;5.430;2023-12-29T02:46:21;100663.59;;;10.03;100.00
71774;BME280;59607;52.130;5.430;2023-12-29T02:48:47;100662.78;;;10.02;100.00
71774;BME280;59607;52.130;5.430;2023-12-29T02:51:14;100647.88;;;10.03;100.00
71774;BME280;59607;52.130;5.430;2023-12-29T02:53:44;100659.66;;;9.98;100.00
71774;BME280;59607;52.130;5.430;2023-12-29T02:56:11;100654.91;;;9.94;100.00
71774;BME280;59607;52.130;5.430;2023-12-29T02:58:37;100646.72;;;9.88;100.00
71774;BME280;59607;52.130;5.430;2023-12-29T03:01:04;100675.34;;;9.82;100.00
71774;BME280;59607;52.130;5.430;2023-12-29T03:03:36;100653.09;;;9.78;100.00
71774;BME280;59607;52.130;5.430;2023-12-29T03:06:06;100661.75;;;9.78;100.00
71774;BME280;59607;52.130;5.430;2023-12-29T03:08:37;100672.41;;;9.77;100.00
71774;BME280;59607;52.130;5.430;2023-12-29T03:11:04;100673.56;;;9.74;100.00
71774;BME280;59607;52.130;5.430;2023-12-29T03:13:31;100656.03;;;9.66;100.00
71774;BME280;59607;52.130;5.430;2023-12-29T03:16:04;100662.88;;;9.59;100.00
71774;BME280;59607;52.130;5.430;2023-12-29T03:18:32;100670.88;;;9.57;100.00
71774;BME280;59607;52.130;5.430;2023-12-29T03:21:09;100665.03;;;9.55;100.00
71774;BME280;59607;52.130;5.430;2023-12-29T03:23:35;100667.63;;;9.55;100.00
71774;BME280;59607;52.130;5.430;2023-12-29T03:26:07;100665.19;;;9.54;100.00
71774;BME280;59607;52.130;5.430;2023-12-29T03:28:33;100669.75;;;9.52;100.00
71774;BME280;59607;52.130;5.430;2023-12-29T03:31:03;100679.56;;;9.49;100.00
71774;BME280;59607;52.130;5.430;2023-12-29T03:33:35;100660.06;;;9.44;100.00
71774;BME280;59607;52.130;5.430;2023-12-29T03:36:04;100659.91;;;9.45;100.00
71774;BME280;59607;52.130;5.430;2023-12-29T03:38:34;100664.31;;;9.45;100.00
71774;BME280;59607;52.130;5.430;2023-12-29T03:41:00;100658.09;;;9.46;100.00
71774;BME280;59607;52.130;5.430;2023-12-29T03:43:28;100668.91;;;9.43;100.00
71774;BME280;59607;52.130;5.430;2023-12-29T03:46:00;100657.13;;;9.38;100.00
71774;BME280;59607;52.130;5.430;2023-12-29T03:48:30;100670.34;;;9.37;100.00
71774;BME280;59607;52.130;5.430;2023-12-29T03:51:10;100665.97;;;9.37;100.00
71774;BME280;59607;52.130;5.430;2023-12-29T03:53:37;100653.66;;;9.38;100.00
71774;BME280;59607;52.130;5.430;2023-12-29T03:56:07;100648.44;;;9.38;100.00
71774;BME280;59607;52.130;5.430;2023-12-29T03:58:37;100649.09;;;9.40;100.00
71774;BME280;59607;52.130;5.430;2023-12-29T04:01:12;100637.31;;;9.44;100.00
71774;BME280;59607;52.130;5.430;2023-12-29T04:03:40;100653.22;;;9.51;100.00
71774;BME280;59607;52.130;5.430;2023-12-29T04:06:11;100641.91;;;9.50;100.00
71774;BME280;59607;52.130;5.430;2023-12-29T04:08:38;100652.09;;;9.54;100.00
71774;BME280;59607;52.130;5.430;2023-12-29T04:11:07;100639.00;;;9.54;100.00
71774;BME280;59607;52.130;5.430;2023-12-29T04:13:33;100640.78;;;9.53;100.00
71774;BME280;59607;52.130;5.430;2023-12-29T04:16:00;100618.22;;;9.52;100.00
71774;BME280;59607;52.130;5.430;2023-12-29T04:18:28;100618.84;;;9.54;100.00
71774;BME280;59607;52.130;5.430;2023-12-29T04:20:57;100639.00;;;9.54;100.00
71774;BME280;59607;52.130;5.430;2023-12-29T04:23:23;100632.78;;;9.55;100.00
71774;BME280;59607;52.130;5.430;2023-12-29T04:25:50;100637.00;;;9.56;100.00
71774;BME280;59607;52.130;5.430;2023-12-29T04:28:22;100633.59;;;9.55;100.00
71774;BME280;59607;52.130;5.430;2023-12-29T04:30:48;100627.38;;;9.56;100.00
71774;BME280;59607;52.130;5.430;2023-12-29T04:33:25;100619.03;;;9.61;100.00
71774;BME280;59607;52.130;5.430;2023-12-29T04:35:51;100630.50;;;9.60;100.00
71774;BME280;59607;52.130;5.430;2023-12-29T04:38:27;100626.72;;;9.62;100.00
71774;BME280;59607;52.130;5.430;2023-12-29T04:40:54;100633.59;;;9.63;100.00
71774;BME280;59607;52.130;5.430;2023-12-29T04:43:20;100633.59;;;9.63;100.00
71774;BME280;59607;52.130;5.430;2023-12-29T04:45:53;100636.03;;;9.65;100.00
71774;BME280;59607;52.130;5.430;2023-12-29T04:48:19;100642.09;;;9.66;100.00
71774;BME280;59607;52.130;5.430;2023-12-29T04:50:50;100642.94;;;9.66;100.00
71774;BME280;59607;52.130;5.430;2023-12-29T04:53:20;100625.56;;;9.65;100.00
71774;BME280;59607;52.130;5.430;2023-12-29T04:55:47;100621.16;;;9.66;100.00
71774;BME280;59607;52.130;5.430;2023-12-29T04:58:17;100637.53;;;9.68;100.00
71774;BME280;59607;52.130;5.430;2023-12-29T05:00:44;100634.91;;;9.68;100.00
71774;BME280;59607;52.130;5.430;2023-12-29T05:03:11;100629.19;;;9.72;100.00
71774;BME280;59607;52.130;5.430;2023-12-29T05:05:46;100625.59;;;9.73;100.00
71774;BME280;59607;52.130;5.430;2023-12-29T05:08:12;100618.56;;;9.74;100.00
71774;BME280;59607;52.130;5.430;2023-12-29T05:11:06;100606.44;;;9.73;100.00
71774;BME280;59607;52.130;5.430;2023-12-29T05:13:32;100620.34;;;9.73;100.00
71774;BME280;59607;52.130;5.430;2023-12-29T05:15:59;100613.47;;;9.72;100.00
71774;BME280;59607;52.130;5.430;2023-12-29T05:18:38;100611.03;;;9.71;100.00
71774;BME280;59607;52.130;5.430;2023-12-29T05:21:17;100611.03;;;9.71;100.00
71774;BME280;59607;52.130;5.430;2023-12-29T05:23:46;100621.34;;;9.72;100.00
71774;BME280;59607;52.130;5.430;2023-12-29T05:26:16;100629.03;;;9.74;100.00
71774;BME280;59607;52.130;5.430;2023-12-29T05:28:43;100624.47;;;9.76;100.00
71774;BME280;59607;52.130;5.430;2023-12-29T05:31:11;100633.94;;;9.77;100.00
71774;BME280;59607;52.130;5.430;2023-12-29T05:33:42;100628.53;;;9.79;100.00
71774;BME280;59607;52.130;5.430;2023-12-29T05:36:11;100634.44;;;9.81;100.00
71774;BME280;59607;52.130;5.430;2023-12-29T05:38:43;100646.72;;;9.80;100.00
71774;BME280;59607;52.130;5.430;2023-12-29T05:41:21;100630.16;;;9.80;100.00
71774;BME280;59607;52.130;5.430;2023-12-29T05:43:48;100613.66;;;9.79;100.00
71774;BME280;59607;52.130;5.430;2023-12-29T05:46:24;100632.16;;;9.78;100.00
71774;BME280;59607;52.130;5.430;2023-12-29T05:48:51;100614.78;;;9.77;100.00
71774;BME280;59607;52.130;5.430;2023-12-29T05:51:19;100630.66;;;9.75;100.00
71774;BME280;59607;52.130;5.430;2023-12-29T05:53:49;100624.63;;;9.74;100.00
71774;BME280;59607;52.130;5.430;2023-12-29T05:56:16;100602.84;;;9.74;100.00
71774;BME280;59607;52.130;5.430;2023-12-29T05:58:54;100627.25;;;9.74;100.00
71774;BME280;59607;52.130;5.430;2023-12-29T06:01:20;100606.44;;;9.73;100.00
71774;BME280;59607;52.130;5.430;2023-12-29T06:03:55;100628.53;;;9.70;100.00
71774;BME280;59607;52.130;5.430;2023-12-29T06:06:21;100601.53;;;9.70;100.00
71774;BME280;59607;52.130;5.430;2023-12-29T06:08:52;100610.19;;;9.70;100.00
71774;BME280;59607;52.130;5.430;2023-12-29T06:11:21;100623.28;;;9.70;100.00
71774;BME280;59607;52.130;5.430;2023-12-29T06:13:50;100626.25;;;9.75;100.00
71774;BME280;59607;52.130;5.430;2023-12-29T06:16:22;100616.59;;;9.76;100.00
71774;BME280;59607;52.130;5.430;2023-12-29T06:18:51;100640.00;;;9.78;100.00
71774;BME280;59607;52.130;5.430;2023-12-29T06:21:31;100627.53;;;9.80;100.00
71774;BME280;59607;52.130;5.430;2023-12-29T06:24:00;100627.41;;;9.81;100.00
71774;BME280;59607;52.130;5.430;2023-12-29T06:26:29;100618.22;;;9.85;100.00
71774;BME280;59607;52.130;5.430;2023-12-29T06:28:55;100632.78;;;9.88;100.00
71774;BME280;59607;52.130;5.430;2023-12-29T06:31:24;100645.72;;;9.90;100.00
71774;BME280;59607;52.130;5.430;2023-12-29T06:33:55;100643.94;;;9.90;100.00
71774;BME280;59607;52.130;5.430;2023-12-29T06:36:31;100635.09;;;9.91;100.00
71774;BME280;59607;52.130;5.430;2023-12-29T06:38:57;100636.91;;;9.91;100.00
71774;BME280;59607;52.130;5.430;2023-12-29T06:41:27;100628.22;;;9.90;100.00
71774;BME280;59607;52.130;5.430;2023-12-29T06:44:00;100635.09;;;9.91;100.00
71774;BME280;59607;52.130;5.430;2023-12-29T06:46:27;100623.66;;;9.92;100.00
71774;BME280;59607;52.130;5.430;2023-12-29T06:48:57;100629.84;;;9.91;100.00
71774;BME280;59607;52.130;5.430;2023-12-29T06:51:24;100621.03;;;9.92;100.00
71774;BME280;59607;52.130;5.430;2023-12-29T06:53:54;100625.44;;;9.92;100.00
71774;BME280;59607;52.130;5.430;2023-12-29T06:56:23;100616.91;;;9.90;100.00
71774;BME280;59607;52.130;5.430;2023-12-29T06:58:56;100606.75;;;9.86;100.00
71774;BME280;59607;52.130;5.430;2023-12-29T07:01:24;100619.84;;;9.86;100.00
71774;BME280;59607;52.130;5.430;2023-12-29T07:03:51;100620.03;;;9.85;100.00
71774;BME280;59607;52.130;5.430;2023-12-29T07:06:21;100617.25;;;9.86;100.00
71774;BME280;59607;52.130;5.430;2023-12-29T07:08:49;100622.66;;;9.85;100.00
71774;BME280;59607;52.130;5.430;2023-12-29T07:13:59;100629.03;;;9.82;100.00
71774;BME280;59607;52.130;5.430;2023-12-29T07:16:26;100616.94;;;9.81;100.00
71774;BME280;59607;52.130;5.430;2023-12-29T07:18:56;100620.53;;;9.80;100.00
71774;BME280;59607;52.130;5.430;2023-12-29T07:21:23;100618.88;;;9.79;100.00
71774;BME280;59607;52.130;5.430;2023-12-29T07:23:51;100633.94;;;9.77;100.00
71774;BME280;59607;52.130;5.430;2023-12-29T07:26:22;100631.16;;;9.79;100.00
71774;BME280;59607;52.130;5.430;2023-12-29T07:28:48;100628.88;;;9.75;100.00
71774;BME280;59607;52.130;5.430;2023-12-29T07:31:23;100631.47;;;9.75;100.00
71774;BME280;59607;52.130;5.430;2023-12-29T07:33:51;100633.94;;;9.77;100.00
71774;BME280;59607;52.130;5.430;2023-12-29T07:36:28;100628.03;;;9.75;100.00
71774;BME280;59607;52.130;5.430;2023-12-29T07:38:54;100631.31;;;9.77;100.00
71774;BME280;59607;52.130;5.430;2023-12-29T07:41:28;100633.13;;;9.77;100.00
71774;BME280;59607;52.130;5.430;2023-12-29T07:43:54;100635.72;;;9.77;100.00
71774;BME280;59607;52.130;5.430;2023-12-29T07:46:31;100641.97;;;9.75;100.00
71774;BME280;59607;52.130;5.430;2023-12-29T07:48:58;100633.44;;;9.73;100.00
71774;BME280;59607;52.130;5.430;2023-12-29T07:51:34;100623.13;;;9.72;100.00
71774;BME280;59607;52.130;5.430;2023-12-29T07:54:01;100621.50;;;9.71;100.00
71774;BME280;59607;52.130;5.430;2023-12-29T07:56:31;100643.28;;;9.71;100.00
71774;BME280;59607;52.130;5.430;2023-12-29T07:58:58;100639.16;;;9.69;100.00
71774;BME280;59607;52.130;5.430;2023-12-29T08:01:24;100638.53;;;9.67;100.00
71774;BME280;59607;52.130;5.430;2023-12-29T08:03:55;100654.09;;;9.68;100.00
71774;BME280;59607;52.130;5.430;2023-12-29T08:06:22;100656.69;;;9.68;100.00
71774;BME280;59607;52.130;5.430;2023-12-29T08:08:48;100669.63;;;9.70;100.00
71774;BME280;59607;52.130;5.430;2023-12-29T08:11:18;100655.38;;;9.72;100.00
71774;BME280;59607;52.130;5.430;2023-12-29T08:13:47;100651.78;;;9.73;100.00
71774;BME280;59607;52.130;5.430;2023-12-29T08:16:15;100645.56;;;9.74;100.00
71774;BME280;59607;52.130;5.430;2023-12-29T08:18:49;100650.31;;;9.79;100.00
71774;BME280;59607;52.130;5.430;2023-12-29T08:21:18;100634.44;;;9.81;100.00
71774;BME280;59607;52.130;5.430;2023-12-29T08:24:03;100653.28;;;9.84;100.00
71774;BME280;59607;52.130;5.430;2023-12-29T08:26:45;100648.84;;;9.85;100.00
71774;BME280;59607;52.130;5.430;2023-12-29T08:29:13;100656.88;;;9.83;100.00
71774;BME280;59607;52.130;5.430;2023-12-29T08:31:44;100642.13;;;9.82;100.00
71774;BME280;59607;52.130;5.430;2023-12-29T08:34:11;100657.84;;;9.82;100.00
71774;BME280;59607;52.130;5.430;2023-12-29T08:37:07;100668.34;;;9.82;100.00
71774;BME280;59607;52.130;5.430;2023-12-29T08:39:48;100666.84;;;9.80;100.00
71774;BME280;59607;52.130;5.430;2023-12-29T08:42:26;100658.84;;;9.81;100.00
71774;BME280;59607;52.130;5.430;2023-12-29T08:45:13;100656.53;;;9.86;100.00
71774;BME280;59607;52.130;5.430;2023-12-29T08:47:42;100653.59;;;9.90;100.00
71774;BME280;59607;52.130;5.430;2023-12-29T08:50:09;100648.03;;;9.93;100.00
71774;BME280;59607;52.130;5.430;2023-12-29T08:52:35;100648.69;;;9.95;100.00
71774;BME280;59607;52.130;5.430;2023-12-29T08:55:08;100643.44;;;9.95;100.00
71774;BME280;59607;52.130;5.430;2023-12-29T08:57:37;100659.50;;;9.92;100.00
71774;BME280;59607;52.130;5.430;2023-12-29T09:00:13;100653.28;;;9.84;100.00
71774;BME280;59607;52.130;5.430;2023-12-29T09:02:45;100665.22;;;9.79;100.00
71774;BME280;59607;52.130;5.430;2023-12-29T09:05:16;100660.97;;;9.78;100.00
71774;BME280;59607;52.130;5.430;2023-12-29T09:07:43;100654.22;;;9.75;100.00
71774;BME280;59607;52.130;5.430;2023-12-29T09:10:15;100652.44;;;9.75;100.00
71774;BME280;59607;52.130;5.430;2023-12-29T09:12:42;100650.66;;;9.76;100.00
71774;BME280;59607;52.130;5.430;2023-12-29T09:15:20;100648.22;;;9.83;100.00
71774;BME280;59607;52.130;5.430;2023-12-29T09:17:48;100646.53;;;9.82;100.00
71774;BME280;59607;52.130;5.430;2023-12-29T09:20:28;100652.28;;;9.85;100.00
71774;BME280;59607;52.130;5.430;2023-12-29T09:23:02;100662.59;;;9.87;100.00
71774;BME280;59607;52.130;5.430;2023-12-29T09:25:29;100651.13;;;9.88;100.00
71774;BME280;59607;52.130;5.430;2023-12-29T09:28:03;100655.59;;;9.96;100.00
71774;BME280;59607;52.130;5.430;2023-12-29T09:30:30;100664.91;;;9.98;100.00
71774;BME280;59607;52.130;5.430;2023-12-29T09:33:06;100679.31;;;10.03;100.00
71774;BME280;59607;52.130;5.430;2023-12-29T09:35:33;100678.34;;;10.04;100.00
71774;BME280;59607;52.130;5.430;2023-12-29T09:38:05;100684.56;;;10.11;100.00
71774;BME280;59607;52.130;5.430;2023-12-29T09:40:41;100687.03;;;10.21;100.00
71774;BME280;59607;52.130;5.430;2023-12-29T09:43:13;100692.25;;;10.29;100.00
71774;BME280;59607;52.130;5.430;2023-12-29T09:45:43;100684.06;;;10.32;100.00
71774;BME280;59607;52.130;5.430;2023-12-29T09:48:16;100682.09;;;10.34;100.00
71774;BME280;59607;52.130;5.430;2023-12-29T09:50:43;100683.75;;;10.35;100.00
71774;BME280;59607;52.130;5.430;2023-12-29T09:53:24;100679.94;;;10.38;100.00
71774;BME280;59607;52.130;5.430;2023-12-29T09:55:54;100685.22;;;10.46;100.00
71774;BME280;59607;52.130;5.430;2023-12-29T09:58:26;100679.00;;;10.47;100.00
71774;BME280;59607;52.130;5.430;2023-12-29T10:00:56;100687.50;;;10.49;100.00
71774;BME280;59607;52.130;5.430;2023-12-29T10:03:25;100683.94;;;10.51;100.00
71774;BME280;59607;52.130;5.430;2023-12-29T10:05:56;100692.94;;;10.48;100.00
71774;BME280;59607;52.130;5.430;2023-12-29T10:08:38;100671.78;;;10.49;100.00
71774;BME280;59607;52.130;5.430;2023-12-29T10:11:07;100677.50;;;10.53;100.00
71774;BME280;59607;52.130;5.430;2023-12-29T10:13:34;100668.69;;;10.54;100.00
71774;BME280;59607;52.130;5.430;2023-12-29T10:16:38;100677.84;;;10.58;100.00
71774;BME280;59607;52.130;5.430;2023-12-29T10:19:49;100675.03;;;10.68;100.00
71774;BME280;59607;52.130;5.430;2023-12-29T10:22:38;100681.91;;;10.78;100.00
71774;BME280;59607;52.130;5.430;2023-12-29T10:25:22;100684.84;;;10.83;100.00
71774;BME280;59607;52.130;5.430;2023-12-29T10:27:50;100682.56;;;10.80;100.00
71774;BME280;59607;52.130;5.430;2023-12-29T10:30:24;100672.22;;;10.78;100.00
71774;BME280;59607;52.130;5.430;2023-12-29T10:33:00;100685.53;;;10.77;100.00
71774;BME280;59607;52.130;5.430;2023-12-29T10:35:31;100677.81;;;10.83;100.00
71774;BME280;59607;52.130;5.430;2023-12-29T10:38:12;100664.81;;;10.90;100.00
71774;BME280;59607;52.130;5.430;2023-12-29T10:40:43;100681.69;;;10.96;100.00
71774;BME280;59607;52.130;5.430;2023-12-29T10:43:10;100694.47;;;10.99;100.00
71774;BME280;59607;52.130;5.430;2023-12-29T10:46:06;100686.13;;;10.95;100.00
71774;BME280;59607;52.130;5.430;2023-12-29T10:48:37;100690.41;;;10.96;100.00
71774;BME280;59607;52.130;5.430;2023-12-29T10:51:06;100689.56;;;10.96;100.00
71774;BME280;59607;52.130;5.430;2023-12-29T10:53:34;100691.84;;;10.99;100.00
71774;BME280;59607;52.130;5.430;2023-12-29T10:56:19;100693.47;;;11.00;100.00
71774;BME280;59607;52.130;5.430;2023-12-29T10:59:05;100687.78;;;10.96;100.00
71774;BME280;59607;52.130;5.430;2023-12-29T11:01:34;100700.41;;;10.93;100.00
71774;BME280;59607;52.130;5.430;2023-12-29T11:04:22;100702.22;;;10.84;100.00
71774;BME280;59607;52.130;5.430;2023-12-29T11:06:55;100704.19;;;10.82;100.00
71774;BME280;59607;52.130;5.430;2023-12-29T11:09:36;100709.44;;;10.82;100.00
71774;BME280;59607;52.130;5.430;2023-12-29T11:12:04;100705.84;;;10.83;100.00
71774;BME280;59607;52.130;5.430;2023-12-29T11:14:39;100682.06;;;10.84;100.00
71774;BME280;59607;52.130;5.430;2023-12-29T11:17:10;100713.84;;;10.90;100.00
71774;BME280;59607;52.130;5.430;2023-12-29T11:19:44;100707.09;;;10.95;100.00
71774;BME280;59607;52.130;5.430;2023-12-29T11:22:16;100704.13;;;10.98;100.00
71774;BME280;59607;52.130;5.430;2023-12-29T11:24:46;100704.81;;;11.01;100.00
71774;BME280;59607;52.130;5.430;2023-12-29T11:27:17;100711.16;;;11.06;100.00
71774;BME280;59607;52.130;5.430;2023-12-29T11:29:58;100719.19;;;11.13;100.00
71774;BME280;59607;52.130;5.430;2023-12-29T11:38:24;100715.25;;;11.17;100.00
71774;BME280;59607;52.130;5.430;2023-12-29T11:41:27;100715.09;;;11.19;100.00
71774;BME280;59607;52.130;5.430;2023-12-29T11:44:00;100721.47;;;11.16;100.00
71774;BME280;59607;52.130;5.430;2023-12-29T11:46:38;100720.00;;;11.22;100.00
71774;BME280;59607;52.130;5.430;2023-12-29T11:49:05;100705.03;;;11.22;100.00
71774;BME280;59607;52.130;5.430;2023-12-29T11:51:46;100709.84;;;11.19;100.00
71774;BME280;59607;52.130;5.430;2023-12-29T11:54:23;100694.72;;;11.21;100.00
71774;BME280;59607;52.130;5.430;2023-12-29T11:56:50;100718.50;;;11.19;100.00
71774;BME280;59607;52.130;5.430;2023-12-29T11:59:25;100710.28;;;11.22;100.00
71774;BME280;59607;52.130;5.430;2023-12-29T12:01:59;100716.84;;;11.27;100.00
71774;BME280;59607;52.130;5.430;2023-12-29T12:04:41;100714.06;;;11.28;100.00
71774;BME280;59607;52.130;5.430;2023-12-29T12:12:54;100696.19;;;11.23;100.00
71774;BME280;59607;52.130;5.430;2023-12-29T12:18:05;100718.00;;;11.24;100.00
71774;BME280;59607;52.130;5.430;2023-12-29T12:20:39;100713.41;;;11.26;100.00
71774;BME280;59607;52.130;5.430;2023-12-29T12:23:17;100703.72;;;11.27;100.00
71774;BME280;59607;52.130;5.430;2023-12-29T12:25:49;100703.91;;;11.25;100.00
71774;BME280;59607;52.130;5.430;2023-12-29T12:28:23;100697.13;;;11.31;100.00
71774;BME280;59607;52.130;5.430;2023-12-29T12:31:04;100690.41;;;11.37;100.00
71774;BME280;59607;52.130;5.430;2023-12-29T12:33:40;100706.31;;;11.35;100.00
71774;BME280;59607;52.130;5.430;2023-12-29T12:36:07;100689.38;;;11.38;100.00
71774;BME280;59607;52.130;5.430;2023-12-29T12:38:38;100692.03;;;11.38;100.00
71774;BME280;59607;52.130;5.430;2023-12-29T12:41:20;100704.97;;;11.39;100.00
71774;BME280;59607;52.130;5.430;2023-12-29T12:44:08;100697.41;;;11.44;100.00
71774;BME280;59607;52.130;5.430;2023-12-29T12:46:41;100693.94;;;11.44;100.00
71774;BME280;59607;52.130;5.430;2023-12-29T12:49:15;100689.53;;;11.44;100.00
71774;BME280;59607;52.130;5.430;2023-12-29T12:51:55;100683.31;;;11.37;100.00
71774;BME280;59607;52.130;5.430;2023-12-29T12:54:27;100693.00;;;11.37;100.00
71774;BME280;59607;52.130;5.430;2023-12-29T12:57:00;100682.84;;;11.33;100.00
71774;BME280;59607;52.130;5.430;2023-12-29T12:59:29;100689.22;;;11.39;100.00
71774;BME280;59607;52.130;5.430;2023-12-29T13:01:59;100689.34;;;11.46;100.00
71774;BME280;59607;52.130;5.430;2023-12-29T13:04:29;100686.06;;;11.44;100.00
71774;BME280;59607;52.130;5.430;2023-12-29T13:06:56;100682.81;;;11.42;100.00
71774;BME280;59607;52.130;5.430;2023-12-29T13:09:23;100684.44;;;11.43;100.00
71774;BME280;59607;52.130;5.430;2023-12-29T13:12:07;100680.03;;;11.43;100.00
71774;BME280;59607;52.130;5.430;2023-12-29T13:14:37;100688.56;;;11.37;100.00
71774;BME280;59607;52.130;5.430;2023-12-29T13:17:12;100688.09;;;11.33;100.00
71774;BME280;59607;52.130;5.430;2023-12-29T13:19:45;100686.19;;;11.27;100.00
71774;BME280;59607;52.130;5.430;2023-12-29T13:22:12;100669.09;;;11.23;100.00
71774;BME280;59607;52.130;5.430;2023-12-29T13:24:56;100689.00;;;11.17;100.00
71774;BME280;59607;52.130;5.430;2023-12-29T13:27:29;100693.75;;;11.14;100.00
71774;BME280;59607;52.130;5.430;2023-12-29T13:29:55;100695.56;;;11.13;100.00